Time;durP1;ratioP1;P1;durP2;ratioP2;P2;SDS_P1;SDS_P2;PMS_P1;PMS_P2;Temp;Humidity;BMP_temperature;BMP_pressure;BME280_temperature;BME280_humidity;BME280_pressure;Samples;Min_cycle;Max_cycle;Signal;HPM_P1;HPM_P2
2023/04/11 00:00:32;;;;;;;2.90;1.83;;;17.50;59.60;;;;;;5048107;28;20456;-72
2023/04/11 00:03:01;;;;;;;2.10;1.80;;;17.40;62.20;;;;;;5045310;28;20571;-72
2023/04/11 00:05:30;;;;;;;3.70;1.77;;;17.20;63.60;;;;;;5033950;28;20453;-72
2023/04/11 00:07:58;;;;;;;1.90;1.73;;;16.80;66.70;;;;;;5033785;28;20507;-73
2023/04/11 00:10:25;;;;;;;3.90;2.20;;;16.60;68.50;;;;;;5049199;28;20547;-71
2023/04/11 00:12:55;;;;;;;1.93;1.83;;;16.60;68.50;;;;;;5046719;28;20533;-72
2023/04/11 00:15:23;;;;;;;2.33;1.63;;;16.50;71.40;;;;;;4999458;28;20497;-72
2023/04/11 00:17:50;;;;;;;3.60;2.10;;;16.40;72.40;;;;;;5033200;28;20488;-72
2023/04/11 00:20:17;;;;;;;3.70;2.30;;;16.40;72.70;;;;;;5050022;28;20542;-71
2023/04/11 00:22:44;;;;;;;2.30;1.80;;;16.20;74.80;;;;;;5052222;28;20547;-72
2023/04/11 00:25:12;;;;;;;2.00;1.80;;;16.10;75.70;;;;;;5048854;28;21008;-70
2023/04/11 00:27:39;;;;;;;3.40;2.00;;;16.00;76.40;;;;;;5046214;28;20972;-72
2023/04/11 00:30:08;;;;;;;2.90;1.90;;;15.90;77.50;;;;;;5052323;28;20881;-73
2023/04/11 00:32:35;;;;;;;2.83;1.83;;;15.90;78.20;;;;;;5043253;28;20553;-72
2023/04/11 00:35:01;;;;;;;3.30;2.03;;;15.80;79.30;;;;;;5037321;28;20476;-72
2023/04/11 00:37:30;;;;;;;3.13;1.80;;;15.80;80.20;;;;;;5052806;28;20546;-73
2023/04/11 00:39:57;;;;;;;2.23;1.80;;;15.80;80.60;;;;;;5051948;28;20483;-71
2023/04/11 00:42:25;;;;;;;3.67;2.10;;;15.80;81.20;;;;;;5035673;28;20583;-72
2023/04/11 00:44:53;;;;;;;2.83;1.90;;;15.70;81.70;;;;;;5043917;28;20898;-72
2023/04/11 00:47:20;;;;;;;3.47;1.90;;;15.60;82.30;;;;;;5039311;28;20448;-71
2023/04/11 00:49:48;;;;;;;3.93;2.20;;;15.60;84.40;;;;;;5051158;28;20670;-71
2023/04/11 00:52:15;;;;;;;1.90;1.70;;;15.60;84.80;;;;;;5037087;28;20509;-71
2023/04/11 00:54:42;;;;;;;2.77;2.00;;;15.60;85.10;;;;;;5042620;28;20782;-72
2023/04/11 00:57:09;;;;;;;2.70;1.70;;;15.50;85.20;;;;;;5043928;28;20576;-73
2023/04/11 00:59:38;;;;;;;2.80;1.60;;;15.40;85.70;;;;;;5050827;28;20448;-72
2023/04/11 01:02:06;;;;;;;3.27;1.53;;;15.60;85.10;;;;;;5036357;28;20792;-72
2023/04/11 01:04:33;;;;;;;1.70;1.60;;;15.70;83.70;;;;;;5051713;28;20444;-72
2023/04/11 01:07:04;;;;;;;1.53;1.20;;;15.80;82.20;;;;;;5037977;28;20447;-72
2023/04/11 01:09:33;;;;;;;3.43;1.57;;;15.90;82.00;;;;;;5048251;28;20482;-72
2023/04/11 01:12:03;;;;;;;2.07;1.77;;;16.00;81.70;;;;;;5046057;28;20452;-72
2023/04/11 01:14:30;;;;;;;2.40;1.50;;;16.10;81.00;;;;;;5040463;28;20537;-72
2023/04/11 01:17:00;;;;;;;3.53;1.50;;;16.20;80.50;;;;;;5050390;28;20483;-71
2023/04/11 01:19:28;;;;;;;2.33;1.73;;;16.20;79.70;;;;;;5050121;28;20452;-72
2023/04/11 01:21:57;;;;;;;2.50;1.70;;;16.30;79.20;;;;;;5020906;28;20506;-71
2023/04/11 01:24:26;;;;;;;2.10;1.70;;;16.40;79.20;;;;;;5046908;28;21027;-71
2023/04/11 01:26:53;;;;;;;2.53;1.97;;;16.40;78.70;;;;;;5034367;28;20550;-71
2023/04/11 01:29:20;;;;;;;2.23;1.60;;;16.40;78.80;;;;;;5043720;28;20567;-72
2023/04/11 01:31:49;;;;;;;1.70;1.60;;;16.30;79.00;;;;;;5051963;28;20859;-72
2023/04/11 01:34:17;;;;;;;2.37;1.73;;;16.40;79.20;;;;;;5051947;28;20532;-72
2023/04/11 01:36:45;;;;;;;1.90;1.60;;;16.50;79.20;;;;;;5048019;28;20487;-72
2023/04/11 01:39:12;;;;;;;1.70;1.57;;;16.50;78.60;;;;;;5033269;28;20884;-72
2023/04/11 01:41:42;;;;;;;1.87;1.70;;;16.50;78.50;;;;;;5040045;28;20555;-72
2023/04/11 01:44:09;;;;;;;1.70;1.60;;;16.60;78.60;;;;;;5051954;28;20456;-72
2023/04/11 01:46:36;;;;;;;2.07;1.50;;;16.60;78.40;;;;;;5037980;28;20544;-72
2023/04/11 01:49:03;;;;;;;1.53;1.43;;;16.60;78.00;;;;;;5033907;28;20452;-72
2023/04/11 01:51:30;;;;;;;2.07;1.53;;;16.50;77.80;;;;;;5043074;28;20530;-72
2023/04/11 01:53:57;;;;;;;1.70;1.60;;;16.30;78.70;;;;;;5052515;28;20482;-72
2023/04/11 01:56:24;;;;;;;2.20;1.80;;;16.10;79.00;;;;;;5056627;28;20512;-73
2023/04/11 01:58:53;;;;;;;3.27;1.63;;;16.10;79.70;;;;;;5058188;28;20481;-72
2023/04/11 02:01:21;;;;;;;2.67;1.87;;;15.90;79.60;;;;;;5050743;28;20456;-71
2023/04/11 02:03:48;;;;;;;2.10;1.37;;;15.80;79.90;;;;;;5046805;28;20952;-72
2023/04/11 02:06:16;;;;;;;2.73;1.30;;;15.90;79.80;;;;;;5035215;28;20818;-71
2023/04/11 02:08:43;;;;;;;2.50;1.40;;;15.90;79.90;;;;;;5038038;28;20467;-72
2023/04/11 02:11:10;;;;;;;2.23;1.30;;;15.90;79.80;;;;;;5033884;28;20540;-72
2023/04/11 02:13:37;;;;;;;2.57;1.37;;;15.90;79.80;;;;;;5037395;28;20472;-71
2023/04/11 02:16:13;;;;;;;2.00;1.17;;;16.00;79.30;;;;;;5047862;28;20448;-71
2023/04/11 02:18:41;;;;;;;1.53;1.10;;;16.00;79.20;;;;;;5049438;28;20480;-73
2023/04/11 02:21:08;;;;;;;2.57;1.60;;;16.00;78.80;;;;;;5038043;28;20449;-72
2023/04/11 02:23:36;;;;;;;4.93;1.43;;;16.00;78.70;;;;;;5042966;28;20446;-72
2023/04/11 02:26:03;;;;;;;4.10;1.10;;;16.00;78.50;;;;;;5046421;28;20519;-72
2023/04/11 02:28:30;;;;;;;1.60;1.30;;;16.00;77.90;;;;;;5040604;28;21147;-72
2023/04/11 02:30:57;;;;;;;1.57;1.03;;;16.00;77.60;;;;;;5050852;28;20536;-72
2023/04/11 02:33:26;;;;;;;3.00;1.13;;;15.90;77.80;;;;;;5035524;28;20477;-72
2023/04/11 02:35:52;;;;;;;2.53;1.20;;;15.90;77.60;;;;;;5030910;28;21123;-72
2023/04/11 02:38:19;;;;;;;2.20;1.10;;;15.80;77.30;;;;;;5030626;28;20493;-72
2023/04/11 02:40:46;;;;;;;2.53;1.17;;;15.80;76.20;;;;;;5042483;28;20452;-72
2023/04/11 02:43:13;;;;;;;1.33;1.10;;;15.60;76.20;;;;;;5050718;28;20448;-71
2023/04/11 02:45:41;;;;;;;2.67;1.27;;;15.50;76.80;;;;;;5051036;28;20484;-72
2023/04/11 02:48:08;;;;;;;2.10;1.23;;;15.30;77.00;;;;;;5050580;28;20444;-72
2023/04/11 02:50:39;;;;;;;2.17;1.20;;;15.30;78.00;;;;;;5050011;28;20483;-72
2023/04/11 02:53:07;;;;;;;1.93;1.10;;;15.30;78.10;;;;;;5050453;28;20452;-71
2023/04/11 02:55:33;;;;;;;1.93;1.10;;;15.40;78.20;;;;;;5050640;28;20874;-72
2023/04/11 02:58:00;;;;;;;3.03;1.30;;;15.40;78.20;;;;;;5050153;28;20992;-72
2023/04/11 03:00:28;;;;;;;2.77;1.10;;;15.50;78.20;;;;;;5048212;28;20883;-71
2023/04/11 03:02:56;;;;;;;1.63;1.20;;;15.50;77.70;;;;;;5041411;28;20543;-72
2023/04/11 03:05:23;;;;;;;1.90;1.13;;;15.50;77.80;;;;;;5050082;28;20456;-72
2023/04/11 03:07:51;;;;;;;2.33;1.03;;;15.50;77.90;;;;;;5036138;28;20453;-72
2023/04/11 03:10:18;;;;;;;1.93;1.10;;;15.50;77.80;;;;;;5035370;28;20559;-72
2023/04/11 03:12:45;;;;;;;2.50;1.20;;;15.50;78.20;;;;;;5043909;28;20457;-71
2023/04/11 03:15:14;;;;;;;1.40;1.00;;;15.50;78.20;;;;;;5045688;28;20448;-72
2023/04/11 03:17:40;;;;;;;2.03;1.20;;;15.50;78.90;;;;;;5035693;28;20484;-71
2023/04/11 03:20:10;;;;;;;2.73;1.20;;;15.50;78.30;;;;;;5035033;28;20551;-71
2023/04/11 03:22:37;;;;;;;2.90;1.63;;;15.40;78.20;;;;;;5039729;28;20536;-71
2023/04/11 03:25:07;;;;;;;3.57;1.40;;;15.40;78.20;;;;;;5036952;28;20547;-71
2023/04/11 03:27:34;;;;;;;2.07;1.40;;;15.30;78.20;;;;;;5044584;28;20453;-72
2023/04/11 03:30:01;;;;;;;2.53;1.00;;;15.20;78.80;;;;;;5041216;28;20987;-72
2023/04/11 03:32:28;;;;;;;2.77;1.00;;;15.10;79.10;;;;;;5040832;28;20474;-72
2023/04/11 03:34:55;;;;;;;3.73;1.63;;;15.10;79.30;;;;;;5052484;28;20543;-72
2023/04/11 03:37:21;;;;;;;2.83;1.47;;;15.10;79.30;;;;;;5038674;28;20583;-72
2023/04/11 03:39:48;;;;;;;2.10;1.23;;;15.10;79.70;;;;;;5041693;28;20544;-71
2023/04/11 03:42:17;;;;;;;3.57;1.40;;;15.00;79.70;;;;;;5038019;28;20455;-72
2023/04/11 03:44:43;;;;;;;2.03;1.30;;;15.00;79.80;;;;;;5045290;28;20490;-72
2023/04/11 03:47:10;;;;;;;1.43;1.00;;;15.00;79.90;;;;;;5053396;28;20451;-72
2023/04/11 03:49:37;;;;;;;2.27;1.40;;;15.00;79.90;;;;;;5053690;28;20531;-72
2023/04/11 03:52:05;;;;;;;2.33;1.33;;;15.00;80.30;;;;;;5051599;28;20566;-71
2023/04/11 03:54:32;;;;;;;2.77;1.40;;;14.90;80.20;;;;;;5050071;28;20539;-72
2023/04/11 03:56:59;;;;;;;3.13;1.10;;;14.80;80.30;;;;;;5053403;28;20543;-72
2023/04/11 03:59:29;;;;;;;3.37;1.10;;;14.80;80.80;;;;;;5052730;28;20480;-72
2023/04/11 04:01:56;;;;;;;2.53;1.30;;;14.90;80.80;;;;;;5053506;28;20991;-72
2023/04/11 04:04:23;;;;;;;3.97;1.33;;;14.90;80.20;;;;;;5047036;28;20555;-72
2023/04/11 04:06:50;;;;;;;1.47;0.80;;;14.80;79.70;;;;;;5052880;28;20527;-72
2023/04/11 04:09:17;;;;;;;1.77;1.00;;;14.70;79.40;;;;;;5048747;28;20546;-72
2023/04/11 04:11:43;;;;;;;2.70;1.27;;;14.60;79.20;;;;;;5048373;28;20568;-72
2023/04/11 04:14:10;;;;;;;1.77;1.30;;;14.40;79.70;;;;;;5042364;28;20547;-71
2023/04/11 04:16:39;;;;;;;1.77;1.30;;;14.20;79.70;;;;;;5052385;28;20480;-73
2023/04/11 04:19:06;;;;;;;2.90;1.23;;;14.20;79.80;;;;;;5050180;28;21301;-72
2023/04/11 04:21:36;;;;;;;1.53;0.97;;;14.10;79.50;;;;;;5038019;28;20547;-72
2023/04/11 04:24:04;;;;;;;1.00;0.90;;;14.10;79.50;;;;;;5041188;28;21029;-72
2023/04/11 04:26:30;;;;;;;1.10;0.90;;;14.20;78.80;;;;;;5033372;28;20455;-72
2023/04/11 04:29:03;;;;;;;0.87;0.87;;;14.20;77.90;;;;;;5047634;28;20792;-72
2023/04/11 04:31:32;;;;;;;2.13;0.70;;;14.20;76.90;;;;;;5033536;28;20491;-72
2023/04/11 04:34:07;;;;;;;1.07;0.87;;;14.30;77.00;;;;;;5038968;28;20461;-71
2023/04/11 04:36:45;;;;;;;1.23;0.80;;;14.40;76.30;;;;;;5032860;28;20473;-73
2023/04/11 04:39:16;;;;;;;1.23;1.10;;;14.50;75.60;;;;;;5032627;28;20596;-70
2023/04/11 04:41:47;;;;;;;2.40;1.10;;;14.60;75.50;;;;;;5032981;28;20463;-73
2023/04/11 04:44:15;;;;;;;2.27;1.40;;;14.60;75.10;;;;;;5032653;28;20538;-72
2023/04/11 04:46:42;;;;;;;1.20;0.90;;;14.60;74.80;;;;;;5039757;28;20445;-72
2023/04/11 04:49:11;;;;;;;1.50;1.20;;;14.50;75.00;;;;;;5031979;28;20438;-72
2023/04/11 04:51:39;;;;;;;4.80;1.13;;;14.60;74.90;;;;;;5039944;28;20563;-72
2023/04/11 04:54:06;;;;;;;2.80;0.97;;;14.60;74.70;;;;;;5048740;28;20457;-72
2023/04/11 04:56:32;;;;;;;2.07;1.03;;;14.60;74.70;;;;;;5032768;28;20889;-72
2023/04/11 04:58:59;;;;;;;2.07;1.10;;;14.50;74.70;;;;;;5032732;28;20996;-72
2023/04/11 05:01:26;;;;;;;1.20;1.07;;;14.50;74.70;;;;;;5044997;28;20547;-72
2023/04/11 05:03:58;;;;;;;1.43;0.90;;;14.60;75.00;;;;;;5046484;28;20455;-72
2023/04/11 05:06:30;;;;;;;2.73;1.20;;;14.70;74.90;;;;;;5052288;28;20943;-72
2023/04/11 05:08:59;;;;;;;2.00;1.37;;;14.70;74.90;;;;;;5051680;28;20813;-71
2023/04/11 05:11:26;;;;;;;2.80;1.40;;;14.70;74.90;;;;;;5036562;28;20549;-72
2023/04/11 05:13:53;;;;;;;2.07;1.23;;;14.70;75.80;;;;;;5046327;28;20456;-71
2023/04/11 05:16:21;;;;;;;2.87;1.50;;;14.70;76.60;;;;;;5052250;28;20989;-72
2023/04/11 05:18:48;;;;;;;1.63;1.20;;;14.70;76.80;;;;;;5050959;28;20488;-72
2023/04/11 05:21:15;;;;;;;3.23;1.33;;;14.60;76.40;;;;;;5018644;28;20536;-72
2023/04/11 05:23:44;;;;;;;1.97;1.10;;;14.50;76.00;;;;;;5039182;28;20511;-72
2023/04/11 05:26:11;;;;;;;1.87;0.93;;;14.50;76.20;;;;;;5052307;28;20480;-72
2023/04/11 05:28:38;;;;;;;1.37;0.80;;;14.50;75.70;;;;;;5051630;28;20470;-71
2023/04/11 05:31:06;;;;;;;2.00;0.90;;;14.30;75.10;;;;;;5045272;28;20475;-72
2023/04/11 05:33:33;;;;;;;1.53;1.00;;;14.20;74.90;;;;;;5037333;28;20732;-72
2023/04/11 05:36:00;;;;;;;1.90;1.03;;;14.20;75.60;;;;;;5043835;28;20584;-72
2023/04/11 05:38:27;;;;;;;1.50;1.20;;;14.20;76.30;;;;;;5048223;28;20570;-72
2023/04/11 05:40:55;;;;;;;2.73;1.17;;;14.10;76.70;;;;;;5050695;28;20482;-72
2023/04/11 05:43:22;;;;;;;1.73;1.10;;;14.20;76.90;;;;;;5038370;28;20531;-72
2023/04/11 05:45:49;;;;;;;1.70;1.07;;;14.20;77.20;;;;;;5037759;28;20495;-71
2023/04/11 05:48:18;;;;;;;3.03;1.30;;;14.20;77.20;;;;;;5038372;28;20453;-72
2023/04/11 05:50:45;;;;;;;2.43;1.20;;;14.20;77.40;;;;;;5041984;28;20485;-72
2023/04/11 05:53:12;;;;;;;1.73;1.27;;;14.20;77.30;;;;;;5040315;28;20449;-72
2023/04/11 05:55:39;;;;;;;1.83;1.10;;;14.00;77.10;;;;;;5037176;28;20843;-72
2023/04/11 05:58:07;;;;;;;2.40;1.03;;;14.00;77.30;;;;;;5048305;28;20488;-73
2023/04/11 06:00:34;;;;;;;3.27;0.93;;;14.00;77.70;;;;;;5048434;28;20459;-72
2023/04/11 06:03:01;;;;;;;2.43;1.13;;;13.80;77.10;;;;;;5044760;28;20559;-71
2023/04/11 06:05:30;;;;;;;2.50;1.10;;;13.80;77.60;;;;;;5049959;28;20449;-72
2023/04/11 06:07:58;;;;;;;1.93;1.23;;;13.80;77.70;;;;;;5046931;28;20484;-72
2023/04/11 06:10:25;;;;;;;2.00;1.10;;;13.80;77.40;;;;;;5038142;28;20476;-71
2023/04/11 06:12:53;;;;;;;1.73;1.13;;;13.70;77.60;;;;;;5041809;28;20531;-71
2023/04/11 06:15:22;;;;;;;2.33;1.07;;;13.60;77.50;;;;;;5048690;28;20452;-73
2023/04/11 06:17:48;;;;;;;2.60;1.20;;;13.50;77.90;;;;;;5048328;28;20548;-73
2023/04/11 06:20:15;;;;;;;3.77;1.43;;;13.50;77.80;;;;;;5031824;28;20536;-73
2023/04/11 06:22:43;;;;;;;3.13;1.30;;;13.60;77.50;;;;;;5045594;28;20452;-73
2023/04/11 06:25:10;;;;;;;2.23;1.27;;;13.70;77.50;;;;;;5042622;28;20449;-72
2023/04/11 06:27:37;;;;;;;3.23;1.10;;;13.80;77.10;;;;;;5034317;28;20480;-73
2023/04/11 06:30:05;;;;;;;4.47;1.50;;;13.70;76.10;;;;;;5031061;28;20560;-73
2023/04/11 06:32:33;;;;;;;1.83;1.00;;;13.60;76.40;;;;;;5050236;28;20527;-72
2023/04/11 06:35:00;;;;;;;2.70;1.30;;;13.60;76.30;;;;;;5046979;28;20476;-72
2023/04/11 06:37:27;;;;;;;3.63;1.23;;;13.60;76.30;;;;;;5038943;28;20503;-72
2023/04/11 06:39:54;;;;;;;2.20;1.47;;;13.50;76.10;;;;;;5042302;28;20523;-72
2023/04/11 06:42:21;;;;;;;2.93;1.40;;;13.50;76.10;;;;;;5036750;28;20536;-72
2023/04/11 06:44:48;;;;;;;2.67;1.30;;;13.60;76.30;;;;;;5049687;28;20535;-71
2023/04/11 06:47:15;;;;;;;2.17;1.00;;;13.60;76.40;;;;;;5037503;28;21012;-71
2023/04/11 06:49:44;;;;;;;2.40;1.47;;;13.50;76.20;;;;;;5050173;28;20506;-72
2023/04/11 06:52:11;;;;;;;5.13;1.70;;;13.60;76.30;;;;;;5041381;28;20603;-73
2023/04/11 06:54:38;;;;;;;4.27;1.70;;;13.70;76.30;;;;;;5044035;28;20531;-73
2023/04/11 06:57:05;;;;;;;4.87;1.43;;;13.70;75.80;;;;;;5045653;28;20531;-72
2023/04/11 06:59:33;;;;;;;3.73;1.73;;;13.80;75.50;;;;;;5036013;28;20568;-72
2023/04/11 07:02:00;;;;;;;3.93;1.50;;;13.90;75.40;;;;;;5031732;28;20461;-71
2023/04/11 07:04:27;;;;;;;3.27;1.20;;;13.90;75.30;;;;;;5050229;28;20555;-72
2023/04/11 07:06:55;;;;;;;2.33;1.20;;;13.90;75.00;;;;;;5049764;28;20537;-72
2023/04/11 07:09:22;;;;;;;4.33;1.23;;;13.90;74.80;;;;;;5053730;28;20455;-72
2023/04/11 07:11:49;;;;;;;5.57;1.87;;;13.90;74.60;;;;;;5045488;28;20472;-74
2023/04/11 07:14:16;;;;;;;4.77;1.20;;;13.90;74.00;;;;;;5042541;28;20451;-74
2023/04/11 07:16:43;;;;;;;4.47;1.53;;;14.10;74.40;;;;;;5054434;28;20463;-73
2023/04/11 07:19:10;;;;;;;3.50;1.50;;;14.10;73.40;;;;;;5038406;28;20484;-72
2023/04/11 07:21:37;;;;;;;4.17;1.77;;;14.20;74.00;;;;;;5036257;28;20552;-73
2023/04/11 07:24:06;;;;;;;2.73;1.60;;;14.30;73.00;;;;;;5053138;28;20451;-74
2023/04/11 07:26:34;;;;;;;4.63;1.40;;;14.50;72.60;;;;;;5053845;28;20452;-73
2023/04/11 07:29:01;;;;;;;2.43;1.30;;;14.60;71.60;;;;;;5049573;28;20548;-74
2023/04/11 07:31:28;;;;;;;3.33;1.40;;;14.70;70.30;;;;;;5053781;28;20506;-72
2023/04/11 07:33:58;;;;;;;3.27;1.77;;;14.70;71.30;;;;;;5053360;28;20483;-74
2023/04/11 07:36:25;;;;;;;4.63;1.83;;;14.90;70.80;;;;;;5052316;28;20559;-74
2023/04/11 07:38:52;;;;;;;4.10;1.60;;;15.00;69.50;;;;;;5052111;28;20480;-73
2023/04/11 07:41:21;;;;;;;4.63;1.57;;;15.10;69.60;;;;;;5033804;28;20851;-73
2023/04/11 07:43:48;;;;;;;4.20;1.60;;;15.20;69.80;;;;;;5034180;28;20568;-74
2023/04/11 07:46:15;;;;;;;5.20;1.60;;;15.00;68.50;;;;;;5034727;28;20957;-73
2023/04/11 07:48:42;;;;;;;5.60;1.60;;;14.80;69.20;;;;;;5050853;28;20502;-74
2023/04/11 07:51:09;;;;;;;4.00;1.53;;;14.60;69.20;;;;;;5022513;28;20473;-74
2023/04/11 07:53:36;;;;;;;6.17;1.70;;;14.60;69.80;;;;;;5034037;28;20539;-74
2023/04/11 07:56:03;;;;;;;6.17;2.23;;;14.60;69.50;;;;;;5038100;28;20449;-73
2023/04/11 07:58:32;;;;;;;4.60;2.00;;;14.50;69.50;;;;;;5034885;28;20458;-73
2023/04/11 08:01:01;;;;;;;2.87;1.60;;;14.50;70.00;;;;;;5045480;28;20471;-73
2023/04/11 08:03:28;;;;;;;3.60;1.70;;;14.60;70.20;;;;;;5034760;28;20484;-71
2023/04/11 08:05:55;;;;;;;2.77;1.23;;;14.40;69.20;;;;;;5046898;28;20483;-73
2023/04/11 08:08:22;;;;;;;3.80;1.80;;;14.40;69.40;;;;;;5054190;28;20535;-73
2023/04/11 08:10:49;;;;;;;3.00;1.73;;;14.40;69.70;;;;;;5053423;28;20440;-73
2023/04/11 08:13:16;;;;;;;5.23;1.80;;;14.40;69.40;;;;;;5037146;28;20477;-73
2023/04/11 08:15:44;;;;;;;4.50;1.60;;;14.60;69.70;;;;;;5050010;28;20480;-73
2023/04/11 08:18:11;;;;;;;3.27;1.60;;;14.80;69.40;;;;;;5053330;28;20540;-73
2023/04/11 08:20:39;;;;;;;6.03;1.60;;;14.90;68.90;;;;;;5052925;28;20972;-71
2023/04/11 08:23:08;;;;;;;3.43;1.50;;;15.00;68.60;;;;;;5052146;28;20540;-73
2023/04/11 08:25:35;;;;;;;8.03;1.70;;;14.80;67.10;;;;;;5042512;28;20464;-74
2023/04/11 08:28:03;;;;;;;4.67;1.60;;;14.80;67.10;;;;;;5035065;28;20481;-72
2023/04/11 08:30:31;;;;;;;3.63;1.90;;;14.90;68.00;;;;;;5033854;28;20449;-73
2023/04/11 08:32:59;;;;;;;3.77;1.53;;;14.90;66.60;;;;;;5035293;28;20486;-73
2023/04/11 08:35:26;;;;;;;5.27;1.77;;;15.00;65.60;;;;;;5033871;28;20449;-73
2023/04/11 08:37:53;;;;;;;7.13;1.80;;;14.90;63.80;;;;;;5043976;28;20453;-74
2023/04/11 08:40:20;;;;;;;5.30;1.60;;;15.00;64.40;;;;;;5034934;28;20979;-74
2023/04/11 08:42:47;;;;;;;4.17;1.73;;;15.00;64.30;;;;;;5040565;28;20450;-74
2023/04/11 08:45:14;;;;;;;6.30;2.03;;;15.10;63.90;;;;;;5033988;28;20551;-74
2023/04/11 08:47:41;;;;;;;3.97;1.73;;;15.20;64.10;;;;;;5037333;28;20464;-73
2023/04/11 08:50:10;;;;;;;6.93;1.70;;;15.30;62.70;;;;;;5053228;28;20448;-73
2023/04/11 08:52:39;;;;;;;5.33;2.13;;;15.30;61.00;;;;;;5051954;28;20473;-74
2023/04/11 08:55:06;;;;;;;4.57;1.80;;;15.20;61.00;;;;;;5047378;28;20487;-73
2023/04/11 08:57:36;;;;;;;4.10;1.43;;;15.30;61.80;;;;;;5038887;28;20452;-74
2023/04/11 09:00:10;;;;;;;4.33;1.40;;;15.50;61.90;;;;;;5051787;28;20488;-74
2023/04/11 09:02:58;;;;;;;9.13;1.93;;;15.40;59.40;;;;;;5052119;28;20480;-73
2023/04/11 09:05:27;;;;;;;5.17;1.90;;;15.60;60.00;;;;;;5052309;28;20483;-73
2023/04/11 09:07:54;;;;;;;4.17;1.67;;;15.70;59.00;;;;;;5052087;28;20830;-73
2023/04/11 09:10:23;;;;;;;5.13;1.50;;;15.70;59.20;;;;;;5051648;28;20444;-73
2023/04/11 09:12:49;;;;;;;5.77;1.90;;;15.80;56.70;;;;;;5049050;28;21158;-73
2023/04/11 09:15:21;;;;;;;5.57;1.70;;;15.80;56.60;;;;;;5032350;28;20862;-74
2023/04/11 09:17:48;;;;;;;5.97;1.67;;;15.80;55.20;;;;;;5050859;28;20535;-74
2023/04/11 09:20:20;;;;;;;4.53;2.00;;;15.80;55.70;;;;;;5066133;28;20488;-74
2023/04/11 09:22:50;;;;;;;5.50;1.80;;;16.10;56.00;;;;;;5058036;28;20452;-73
2023/04/11 09:25:18;;;;;;;3.60;1.80;;;16.10;54.40;;;;;;5051641;28;20911;-74
2023/04/11 09:27:46;;;;;;;5.03;2.03;;;16.20;55.60;;;;;;5058371;28;20528;-75
2023/04/11 09:30:22;;;;;;;7.00;2.00;;;16.40;56.00;;;;;;5056946;28;20440;-74
2023/04/11 09:32:51;;;;;;;5.73;1.80;;;16.50;53.90;;;;;;5032718;28;20536;-74
2023/04/11 09:35:53;;;;;;;3.63;1.63;;;16.50;53.20;;;;;;5033539;28;20515;-73
2023/04/11 09:38:32;;;;;;;5.47;1.63;;;16.40;53.50;;;;;;5031972;28;20534;-74
2023/04/11 09:40:59;;;;;;;5.20;1.70;;;16.40;54.00;;;;;;5031640;28;20544;-74
2023/04/11 09:43:26;;;;;;;4.63;1.63;;;16.50;54.00;;;;;;5031736;28;20948;-74
2023/04/11 09:46:10;;;;;;;4.37;1.80;;;16.40;53.50;;;;;;5031954;28;20792;-72
2023/04/11 09:48:38;;;;;;;4.50;1.60;;;16.30;53.10;;;;;;5035847;28;20463;-74
2023/04/11 09:51:06;;;;;;;3.97;1.50;;;16.40;52.70;;;;;;5042145;28;20480;-74
2023/04/11 09:53:36;;;;;;;6.93;1.90;;;16.50;52.50;;;;;;5035091;28;20522;-73
2023/04/11 09:56:03;;;;;;;3.60;2.00;;;16.60;53.40;;;;;;5033777;28;20547;-74
2023/04/11 09:58:32;;;;;;;4.10;1.70;;;16.70;52.40;;;;;;5051389;28;20527;-75
2023/04/11 10:01:00;;;;;;;4.93;1.90;;;16.70;52.50;;;;;;5050866;28;20487;-75
2023/04/11 10:03:29;;;;;;;6.20;1.70;;;16.80;52.90;;;;;;5044962;28;21166;-73
2023/04/11 10:05:57;;;;;;;5.97;1.63;;;16.60;51.60;;;;;;5040893;28;20452;-73
2023/04/11 10:08:31;;;;;;;6.00;1.73;;;16.40;52.70;;;;;;5051466;28;20831;-73
2023/04/11 10:11:00;;;;;;;5.60;1.93;;;16.50;52.40;;;;;;5035523;28;20487;-74
2023/04/11 10:13:41;;;;;;;3.73;1.90;;;16.60;53.40;;;;;;5056283;28;20450;-74
2023/04/11 10:16:10;;;;;;;6.53;2.20;;;16.70;52.50;;;;;;5049160;28;20539;-74
2023/04/11 10:18:37;;;;;;;6.73;1.60;;;16.80;53.20;;;;;;5051845;28;20448;-74
2023/04/11 10:21:06;;;;;;;4.50;1.70;;;16.90;52.70;;;;;;5051350;28;20906;-74
2023/04/11 10:24:09;;;;;;;6.20;1.80;;;17.00;52.80;;;;;;5051631;28;20480;-73
2023/04/11 10:26:51;;;;;;;3.07;1.80;;;17.00;52.20;;;;;;5051528;28;20444;-74
2023/04/11 10:29:50;;;;;;;4.53;1.70;;;16.90;52.00;;;;;;5049981;28;20463;-74
2023/04/11 10:32:22;;;;;;;4.97;1.50;;;16.90;51.60;;;;;;5031434;28;20518;-74
2023/04/11 10:35:28;;;;;;;5.57;1.90;;;17.10;52.30;;;;;;5039019;28;20565;-75
2023/04/11 10:37:55;;;;;;;4.87;1.60;;;17.10;52.20;;;;;;5031789;28;20477;-73
2023/04/11 10:40:23;;;;;;;4.33;1.80;;;17.20;51.20;;;;;;5031416;28;20495;-73
2023/04/11 10:42:51;;;;;;;5.00;2.10;;;17.30;51.20;;;;;;5031559;28;20836;-72
2023/04/11 10:45:24;;;;;;;3.23;1.60;;;17.10;49.50;;;;;;5048610;28;20491;-74
2023/04/11 10:48:10;;;;;;;4.73;1.67;;;17.10;51.00;;;;;;5037858;28;20852;-75
2023/04/11 10:50:43;;;;;;;3.80;1.77;;;17.10;51.00;;;;;;5050603;28;20507;-74
2023/04/11 10:53:32;;;;;;;5.50;1.87;;;17.30;50.60;;;;;;5049370;28;20480;-74
2023/04/11 10:55:59;;;;;;;4.73;1.70;;;17.20;49.30;;;;;;5051062;28;20863;-72
2023/04/11 10:58:34;;;;;;;3.30;1.67;;;17.00;49.50;;;;;;5050256;28;20966;-74
2023/04/11 11:01:15;;;;;;;6.73;1.90;;;17.10;49.30;;;;;;5050069;28;20494;-73
2023/04/11 11:03:51;;;;;;;4.37;1.63;;;17.20;49.70;;;;;;5045169;28;20539;-73
2023/04/11 11:06:19;;;;;;;6.10;1.80;;;17.20;48.70;;;;;;5032583;28;20956;-74
2023/04/11 11:08:46;;;;;;;3.20;1.60;;;17.30;49.40;;;;;;5049770;28;20457;-74
2023/04/11 11:11:14;;;;;;;5.23;1.43;;;17.30;49.00;;;;;;5054870;28;20536;-74
2023/04/11 11:13:44;;;;;;;4.40;1.90;;;17.30;48.80;;;;;;5041982;28;20242;-73
2023/04/11 11:16:14;;;;;;;6.40;1.97;;;17.30;48.40;;;;;;5042914;28;20517;-74
2023/04/11 11:18:45;;;;;;;2.67;1.40;;;17.20;48.80;;;;;;5040383;28;20493;-75
2023/04/11 11:21:13;;;;;;;8.07;1.80;;;17.30;48.30;;;;;;5050099;28;21006;-73
2023/04/11 11:23:52;;;;;;;4.53;1.70;;;17.40;47.90;;;;;;5050334;28;20574;-74
2023/04/11 11:26:19;;;;;;;4.03;1.53;;;17.30;47.00;;;;;;5035143;28;20528;-73
2023/04/11 11:28:48;;;;;;;2.77;1.50;;;17.40;47.10;;;;;;5030615;28;20452;-74
2023/04/11 11:31:15;;;;;;;3.93;1.57;;;17.40;48.10;;;;;;5045698;28;20555;-74
2023/04/11 11:33:42;;;;;;;4.70;1.37;;;17.70;48.70;;;;;;5041120;28;20528;-72
2023/04/11 11:36:10;;;;;;;5.03;1.80;;;17.60;49.00;;;;;;4998560;28;20456;-73
2023/04/11 11:38:37;;;;;;;3.73;1.43;;;17.50;49.60;;;;;;5037148;28;20809;-74
2023/04/11 11:41:05;;;;;;;5.10;1.80;;;17.60;50.20;;;;;;4995912;28;20236;-74
2023/04/11 11:43:36;;;;;;;3.63;1.40;;;17.60;50.30;;;;;;5004483;28;20563;-74
2023/04/11 11:46:09;;;;;;;5.13;1.30;;;17.50;52.10;;;;;;5050350;28;20448;-74
2023/04/11 11:48:37;;;;;;;3.83;1.40;;;17.40;54.00;;;;;;5046204;28;20962;-74
2023/04/11 11:51:04;;;;;;;4.87;1.53;;;17.50;54.60;;;;;;4997892;28;20480;-74
2023/04/11 11:53:31;;;;;;;3.97;1.63;;;17.20;53.50;;;;;;5036293;28;21136;-73
2023/04/11 11:55:58;;;;;;;5.17;1.40;;;17.30;54.00;;;;;;5050771;28;20880;-74
2023/04/11 11:58:26;;;;;;;8.03;1.80;;;17.40;54.00;;;;;;5040096;28;20473;-74
2023/04/11 12:00:53;;;;;;;3.47;1.50;;;17.40;53.20;;;;;;5033375;28;20492;-74
2023/04/11 12:03:24;;;;;;;5.03;1.80;;;17.20;52.70;;;;;;5036901;28;20445;-74
2023/04/11 12:05:52;;;;;;;4.97;1.80;;;17.10;52.40;;;;;;5053665;28;20475;-74
2023/04/11 12:08:21;;;;;;;4.97;1.77;;;17.00;53.30;;;;;;5053482;28;20552;-73
2023/04/11 12:10:50;;;;;;;9.47;1.60;;;16.90;52.00;;;;;;5040556;28;20449;-73
2023/04/11 12:13:19;;;;;;;4.53;1.50;;;16.60;51.80;;;;;;5044714;28;20456;-73
2023/04/11 12:15:50;;;;;;;5.20;1.63;;;16.40;53.10;;;;;;5047243;28;20457;-73
2023/04/11 12:18:22;;;;;;;2.77;1.57;;;16.30;54.20;;;;;;5037434;28;20571;-73
2023/04/11 12:20:49;;;;;;;4.53;1.80;;;16.20;54.10;;;;;;5033592;28;20485;-74
2023/04/11 12:23:16;;;;;;;3.07;1.37;;;16.30;54.30;;;;;;5028639;28;20452;-74
2023/04/11 12:25:43;;;;;;;4.33;1.37;;;16.50;54.20;;;;;;5054244;28;20467;-74
2023/04/11 12:28:10;;;;;;;2.10;1.20;;;16.70;54.10;;;;;;5053322;28;20463;-73
2023/04/11 12:30:37;;;;;;;3.97;1.63;;;16.80;52.60;;;;;;5040536;28;20759;-74
2023/04/11 12:33:04;;;;;;;4.53;1.73;;;17.00;51.30;;;;;;5035612;28;20457;-75
2023/04/11 12:35:33;;;;;;;2.97;1.70;;;17.00;50.90;;;;;;5053904;28;20538;-72
2023/04/11 12:38:00;;;;;;;5.23;1.60;;;17.20;50.90;;;;;;5053771;28;20476;-73
2023/04/11 12:40:28;;;;;;;6.43;2.10;;;17.20;50.50;;;;;;5053207;28;20511;-74
2023/04/11 12:42:56;;;;;;;6.17;1.60;;;17.40;50.60;;;;;;5053762;28;20486;-73
2023/04/11 12:45:23;;;;;;;2.67;1.63;;;17.60;50.40;;;;;;5053616;28;20452;-74
2023/04/11 12:47:50;;;;;;;2.50;1.67;;;17.60;50.30;;;;;;5052886;28;20452;-74
2023/04/11 12:50:17;;;;;;;5.33;1.57;;;17.60;50.30;;;;;;5052678;28;20475;-74
2023/04/11 12:52:47;;;;;;;3.77;1.93;;;17.70;50.40;;;;;;5053563;28;20495;-73
2023/04/11 12:55:14;;;;;;;5.57;1.80;;;17.60;50.40;;;;;;5028274;28;20933;-74